createdAt,value
2018-06-05T00:01:14.983Z,17.40
2018-06-05T00:03:43.675Z,17.55
2018-06-05T00:06:12.192Z,17.17
2018-06-05T00:08:40.387Z,15.95
2018-06-05T00:11:09.077Z,16.73
2018-06-05T00:13:37.894Z,15.85
2018-06-05T00:16:06.938Z,17.12
2018-06-05T00:18:35.320Z,16.27
2018-06-05T00:21:03.687Z,17.73
2018-06-05T00:23:31.784Z,16.95
2018-06-05T00:26:00.023Z,16.80
2018-06-05T00:28:28.408Z,18.00
2018-06-05T00:30:56.389Z,17.15
2018-06-05T00:33:24.509Z,17.67
2018-06-05T00:35:53.337Z,17.15
2018-06-05T00:38:21.602Z,17.50
2018-06-05T00:40:49.690Z,17.05
2018-06-05T00:43:17.664Z,18.00
2018-06-05T00:45:51.489Z,17.27
2018-06-05T00:48:19.895Z,18.00
2018-06-05T00:50:48.226Z,18.80
2018-06-05T00:53:16.481Z,18.10
2018-06-05T00:55:44.753Z,19.02
2018-06-05T00:58:13.344Z,19.85
2018-06-05T01:00:41.806Z,18.45
2018-06-05T01:03:09.905Z,18.75
2018-06-05T01:05:38.303Z,19.73
2018-06-05T01:08:06.804Z,18.95
2018-06-05T01:10:35.078Z,19.30
2018-06-05T01:13:03.261Z,19.35
2018-06-05T01:15:32.268Z,18.85
2018-06-05T01:18:00.701Z,18.95
2018-06-05T01:20:28.815Z,19.17
2018-06-05T01:22:57.094Z,19.32
2018-06-05T01:25:24.958Z,19.30
2018-06-05T01:27:53.382Z,19.35
2018-06-05T01:30:21.362Z,19.52
2018-06-05T01:32:49.280Z,19.40
2018-06-05T01:35:17.567Z,19.50
2018-06-05T01:37:45.657Z,20.10
2018-06-05T01:40:14.547Z,19.40
2018-06-05T01:42:43.069Z,20.30
2018-06-05T01:45:11.253Z,20.30
2018-06-05T01:47:39.232Z,19.37
2018-06-05T01:50:07.660Z,20.40
2018-06-05T01:52:36.556Z,20.50
2018-06-05T01:55:04.654Z,20.68
2018-06-05T01:57:32.746Z,20.20
2018-06-05T02:00:01.136Z,21.12
2018-06-05T02:02:29.537Z,20.27
2018-06-05T02:04:58.152Z,21.10
2018-06-05T02:07:26.351Z,20.37
2018-06-05T02:09:54.438Z,20.00
2018-06-05T02:12:22.754Z,20.30
2018-06-05T02:14:51.039Z,19.02
2018-06-05T02:17:19.233Z,19.82
2018-06-05T02:19:47.617Z,19.92
2018-06-05T02:22:15.718Z,19.70
2018-06-05T02:24:43.800Z,19.70
2018-06-05T02:27:12.100Z,20.37
2018-06-05T02:29:40.497Z,20.52
2018-06-05T02:32:08.612Z,20.02
2018-06-05T02:34:36.895Z,20.23
2018-06-05T02:37:04.996Z,20.43
2018-06-05T02:39:33.416Z,20.37
2018-06-05T02:42:01.792Z,20.40
2018-06-05T02:44:29.873Z,20.10
2018-06-05T02:46:58.182Z,21.20
2018-06-05T02:49:26.255Z,21.37
2018-06-05T02:51:54.561Z,20.23
2018-06-05T02:54:22.935Z,20.35
2018-06-05T02:56:51.159Z,22.20
2018-06-05T02:59:19.330Z,21.05
2018-06-05T03:01:48.279Z,21.30
2018-06-05T03:04:16.564Z,21.02
2018-06-05T03:06:44.859Z,21.17
2018-06-05T03:09:13.072Z,20.80
2018-06-05T03:11:41.526Z,20.97
2018-06-05T03:14:09.887Z,20.55
2018-06-05T03:16:38.149Z,20.72
2018-06-05T03:19:06.259Z,20.57
2018-06-05T03:21:34.494Z,20.77
2018-06-05T03:24:02.860Z,20.77
2018-06-05T03:26:31.213Z,21.40
2018-06-05T03:28:59.640Z,20.35
2018-06-05T03:31:27.928Z,21.25
2018-06-05T03:33:56.145Z,20.08
2018-06-05T03:36:23.846Z,20.47
2018-06-05T03:38:52.709Z,21.23
2018-06-05T03:41:21.119Z,21.48
2018-06-05T03:43:49.533Z,21.42
2018-06-05T03:46:17.666Z,21.40
2018-06-05T03:48:45.922Z,22.60
2018-06-05T03:51:14.005Z,22.02
2018-06-05T03:53:42.915Z,22.00
2018-06-05T03:56:11.135Z,22.45
2018-06-05T03:58:40.041Z,21.57
2018-06-05T04:01:09.245Z,22.62
2018-06-05T04:03:37.441Z,21.12
2018-06-05T04:06:05.828Z,21.73
2018-06-05T04:08:34.045Z,22.32
2018-06-05T04:11:02.260Z,21.80
2018-06-05T04:13:31.842Z,21.60
2018-06-05T04:16:00.139Z,22.35
2018-06-05T04:18:28.573Z,22.45
2018-06-05T04:20:56.746Z,21.70
2018-06-05T04:23:24.847Z,25.65
2018-06-05T04:25:53.143Z,22.03
2018-06-05T04:28:21.530Z,22.40
2018-06-05T04:30:49.932Z,21.82
2018-06-05T04:33:18.348Z,21.85
2018-06-05T04:35:46.222Z,22.00
2018-06-05T04:38:14.957Z,21.50
2018-06-05T04:40:43.338Z,21.50
2018-06-05T04:43:11.756Z,21.33
2018-06-05T04:45:39.994Z,21.27
2018-06-05T04:48:09.228Z,21.00
2018-06-05T04:50:37.647Z,20.32
2018-06-05T04:53:05.958Z,20.50
2018-06-05T04:55:34.138Z,20.60
2018-06-05T04:58:02.096Z,20.62
2018-06-05T05:00:30.933Z,20.90
2018-06-05T05:02:59.568Z,21.42
2018-06-05T05:05:28.981Z,21.05
2018-06-05T05:07:57.364Z,20.72
2018-06-05T05:10:25.576Z,21.37
2018-06-05T05:12:53.940Z,20.93
2018-06-05T05:15:22.242Z,20.97
2018-06-05T05:17:50.618Z,23.73
2018-06-05T05:20:19.161Z,26.10
2018-06-05T05:22:46.992Z,27.77
2018-06-05T05:25:15.132Z,27.48
2018-06-05T05:27:43.726Z,28.15
2018-06-05T05:30:15.509Z,28.07
2018-06-05T05:32:43.715Z,26.82
2018-06-05T05:35:11.597Z,26.80
2018-06-05T05:37:39.586Z,27.77
2018-06-05T05:40:08.093Z,28.27
2018-06-05T05:42:36.090Z,27.10
2018-06-05T05:45:04.301Z,25.70
2018-06-05T05:47:35.839Z,25.50
2018-06-05T05:50:04.132Z,25.02
2018-06-05T05:52:32.475Z,34.60
2018-06-05T05:55:00.542Z,34.70
2018-06-05T05:57:28.539Z,30.30
2018-06-05T05:59:56.834Z,29.20
2018-06-05T06:02:25.878Z,26.60
2018-06-05T06:04:54.341Z,27.02
2018-06-05T06:07:22.549Z,27.22
2018-06-05T06:09:51.281Z,28.10
2018-06-05T06:12:19.833Z,28.42
2018-06-05T06:14:48.448Z,28.07
2018-06-05T06:17:16.844Z,28.35
2018-06-05T06:19:45.154Z,28.70
2018-06-05T06:22:14.213Z,30.60
2018-06-05T06:24:42.548Z,32.95
2018-06-05T06:27:11.048Z,32.38
2018-06-05T06:29:39.271Z,32.65
2018-06-05T06:32:07.570Z,32.48
2018-06-05T06:34:35.864Z,32.00
2018-06-05T06:37:04.237Z,31.77
2018-06-05T06:39:32.326Z,33.28
2018-06-05T06:42:00.844Z,33.45
2018-06-05T06:44:29.157Z,32.42
2018-06-05T06:46:57.547Z,30.20
2018-06-05T06:49:25.649Z,31.37
2018-06-05T06:51:53.831Z,32.53
2018-06-05T06:54:22.150Z,31.62
2018-06-05T06:56:50.442Z,32.50
2018-06-05T06:59:18.326Z,32.25
2018-06-05T07:01:47.176Z,30.40
2018-06-05T07:04:15.445Z,30.02
2018-06-05T07:06:43.731Z,30.20
2018-06-05T07:09:12.073Z,29.15
2018-06-05T07:11:41.282Z,30.80
2018-06-05T07:14:09.660Z,31.57
2018-06-05T07:16:37.941Z,33.25
2018-06-05T07:19:06.232Z,33.73
2018-06-05T07:21:34.245Z,31.35
2018-06-05T07:24:02.577Z,31.90
2018-06-05T07:26:31.031Z,32.35
2018-06-05T07:28:59.450Z,33.45
2018-06-05T07:31:28.345Z,33.55
2018-06-05T07:33:57.131Z,34.33
2018-06-05T07:36:26.210Z,34.67
2018-06-05T07:38:54.554Z,34.30
2018-06-05T07:41:22.657Z,36.60
2018-06-05T07:43:50.648Z,35.43
2018-06-05T07:46:18.655Z,35.30
2018-06-05T07:48:46.923Z,36.00
2018-06-05T07:51:15.010Z,35.13
2018-06-05T07:53:43.456Z,36.88
2018-06-05T07:56:11.818Z,36.13
2018-06-05T07:58:43.703Z,36.83
2018-06-05T08:01:12.001Z,36.05
2018-06-05T08:03:40.284Z,37.28
2018-06-05T08:06:08.397Z,36.80
2018-06-05T08:08:36.761Z,36.10
2018-06-05T08:11:04.976Z,36.85
2018-06-05T08:13:33.097Z,33.95
2018-06-05T08:16:01.684Z,36.55
2018-06-05T08:18:29.858Z,35.00
2018-06-05T08:20:57.834Z,34.95
2018-06-05T08:23:26.144Z,35.45
2018-06-05T08:25:54.880Z,35.50
2018-06-05T08:28:23.273Z,35.17
2018-06-05T08:30:51.537Z,35.63
2018-06-05T08:33:19.943Z,35.17
2018-06-05T08:35:48.372Z,36.30
2018-06-05T08:38:16.766Z,35.68
2018-06-05T08:40:45.272Z,34.80
2018-06-05T08:43:13.456Z,33.92
2018-06-05T08:45:41.536Z,34.00
2018-06-05T08:48:09.929Z,33.28
2018-06-05T08:50:38.238Z,33.10
2018-06-05T08:53:06.557Z,34.50
2018-06-05T08:55:34.740Z,33.90
2018-06-05T08:58:03.347Z,33.90
2018-06-05T09:00:31.557Z,33.38
2018-06-05T09:02:59.748Z,35.10
2018-06-05T09:05:28.110Z,34.27
2018-06-05T09:07:56.397Z,34.60
2018-06-05T09:10:24.964Z,35.43
2018-06-05T09:12:53.369Z,37.40
2018-06-05T09:15:21.620Z,39.00
2018-06-05T09:17:49.937Z,39.85
2018-06-05T09:20:18.131Z,39.53
2018-06-05T09:22:46.445Z,40.10
2018-06-05T09:25:14.826Z,38.83
2018-06-05T09:27:43.098Z,47.45
2018-06-05T09:30:11.484Z,38.63
2018-06-05T09:32:39.697Z,37.58
2018-06-05T09:35:07.889Z,38.15
2018-06-05T09:37:36.200Z,34.40
2018-06-05T09:40:04.205Z,32.10
2018-06-05T09:42:32.500Z,35.30
2018-06-05T09:45:01.004Z,36.73
2018-06-05T09:47:29.300Z,34.35
2018-06-05T09:49:57.602Z,31.80
2018-06-05T09:52:25.988Z,32.40
2018-06-05T09:54:54.772Z,32.80
2018-06-05T09:57:23.187Z,34.10
2018-06-05T09:59:51.597Z,32.95
2018-06-05T10:02:19.697Z,34.48
2018-06-05T10:04:47.994Z,33.02
2018-06-05T10:07:16.328Z,33.00
2018-06-05T10:09:44.584Z,35.25
2018-06-05T10:12:12.772Z,34.95
2018-06-05T10:14:40.955Z,35.38
2018-06-05T10:17:09.279Z,36.25
2018-06-05T10:19:37.977Z,34.23
2018-06-05T10:22:06.179Z,33.08
2018-06-05T10:24:34.261Z,33.30
2018-06-05T10:27:02.552Z,33.15
2018-06-05T10:29:30.540Z,33.13
2018-06-05T10:31:58.546Z,33.78
2018-06-05T10:34:27.168Z,31.55
2018-06-05T10:36:56.172Z,32.00
2018-06-05T10:39:24.585Z,30.97
2018-06-05T10:41:53.525Z,31.25
2018-06-05T10:44:21.861Z,31.10
2018-06-05T10:46:50.370Z,29.77
2018-06-05T10:49:18.590Z,32.10
2018-06-05T10:51:46.842Z,31.35
2018-06-05T10:54:14.962Z,32.23
2018-06-05T10:56:43.645Z,34.30
2018-06-05T10:59:11.833Z,35.33
2018-06-05T11:01:40.251Z,36.30
2018-06-05T11:04:08.363Z,36.13
2018-06-05T11:06:36.540Z,33.88
2018-06-05T11:09:07.393Z,35.52
2018-06-05T11:11:35.482Z,33.60
2018-06-05T11:14:04.636Z,32.85
2018-06-05T11:16:33.115Z,32.50
2018-06-05T11:19:01.185Z,31.85
2018-06-05T11:21:28.977Z,32.48
2018-06-05T11:23:58.195Z,33.58
2018-06-05T11:26:26.924Z,34.50
2018-06-05T11:28:55.304Z,34.80
2018-06-05T11:31:23.818Z,34.35
2018-06-05T11:33:52.430Z,34.43
2018-06-05T11:36:20.496Z,35.45
2018-06-05T11:38:48.933Z,33.50
2018-06-05T11:41:17.319Z,37.23
2018-06-05T11:43:46.341Z,38.17
2018-06-05T11:46:14.836Z,38.80
2018-06-05T11:48:43.731Z,39.93
2018-06-05T11:51:12.162Z,40.40
2018-06-05T11:53:40.535Z,40.55
2018-06-05T11:56:08.644Z,41.68
2018-06-05T11:58:37.017Z,41.18
2018-06-05T12:01:05.956Z,41.35
2018-06-05T12:03:35.378Z,41.95
2018-06-05T12:06:03.864Z,39.80
2018-06-05T12:08:32.192Z,42.70
2018-06-05T12:11:00.978Z,40.60
2018-06-05T12:13:29.468Z,40.15
2018-06-05T12:15:58.089Z,42.25
2018-06-05T12:18:26.372Z,39.88
2018-06-05T12:20:54.362Z,37.60
2018-06-05T12:23:23.178Z,36.58
2018-06-05T12:25:51.483Z,35.58
2018-06-05T12:28:20.390Z,38.35
2018-06-05T12:30:48.353Z,37.35
2018-06-05T12:33:16.812Z,37.73
2018-06-05T12:35:44.954Z,37.67
2018-06-05T12:38:13.162Z,38.92
2018-06-05T12:40:41.264Z,39.53
2018-06-05T12:43:09.648Z,39.27
2018-06-05T12:45:37.750Z,36.00
2018-06-05T12:48:06.261Z,35.23
2018-06-05T12:50:34.771Z,36.00
2018-06-05T12:53:03.364Z,34.40
2018-06-05T12:55:31.664Z,32.65
2018-06-05T12:58:00.297Z,33.18
2018-06-05T13:00:28.668Z,33.55
2018-06-05T13:02:56.944Z,34.25
2018-06-05T13:05:25.917Z,37.90
2018-06-05T13:07:54.784Z,37.28
2018-06-05T13:10:23.595Z,36.38
2018-06-05T13:12:51.688Z,35.30
2018-06-05T13:15:20.071Z,34.33
2018-06-05T13:17:48.034Z,34.30
2018-06-05T13:20:16.430Z,34.47
2018-06-05T13:22:44.708Z,32.23
2018-06-05T13:25:13.174Z,31.62
2018-06-05T13:27:41.778Z,32.17
2018-06-05T13:30:10.291Z,30.45
2018-06-05T13:32:38.498Z,32.15
2018-06-05T13:35:06.976Z,30.70
2018-06-05T13:37:35.512Z,31.17
2018-06-05T13:40:04.196Z,31.20
2018-06-05T13:42:33.002Z,30.92
2018-06-05T13:45:01.194Z,31.45
2018-06-05T13:47:29.455Z,30.97
2018-06-05T13:49:57.683Z,30.23
2018-06-05T13:52:25.908Z,29.45
2018-06-05T13:54:54.481Z,32.17
2018-06-05T13:57:22.694Z,33.58
2018-06-05T13:59:51.048Z,33.83
2018-06-05T14:02:19.591Z,33.77
2018-06-05T14:04:48.046Z,33.58
2018-06-05T14:07:16.368Z,34.38
2018-06-05T14:09:45.172Z,35.40
2018-06-05T14:12:13.177Z,36.00
2018-06-05T14:14:41.573Z,34.90
2018-06-05T14:17:09.945Z,35.30
2018-06-05T14:19:38.362Z,35.33
2018-06-05T14:22:06.353Z,34.25
2018-06-05T14:24:34.394Z,34.00
2018-06-05T14:27:02.552Z,33.10
2018-06-05T14:29:30.568Z,33.13
2018-06-05T14:31:58.837Z,34.60
2018-06-05T14:34:27.235Z,34.98
2018-06-05T14:36:55.647Z,34.70
2018-06-05T14:39:24.433Z,34.10
2018-06-05T14:41:52.524Z,35.13
2018-06-05T14:44:21.640Z,35.73
2018-06-05T14:46:49.727Z,35.25
2018-06-05T14:49:18.748Z,37.28
2018-06-05T14:51:46.866Z,36.68
2018-06-05T14:54:15.321Z,35.33
2018-06-05T14:56:43.737Z,36.75
2018-06-05T14:59:12.756Z,33.85
2018-06-05T15:01:40.822Z,36.83
2018-06-05T15:04:09.708Z,35.33
2018-06-05T15:06:38.075Z,35.35
2018-06-05T15:09:06.570Z,34.67
2018-06-05T15:11:34.967Z,37.00
2018-06-05T15:14:02.953Z,37.33
2018-06-05T15:16:31.037Z,36.23
2018-06-05T15:18:59.373Z,36.95
2018-06-05T15:21:27.612Z,37.70
2018-06-05T15:23:56.190Z,36.35
2018-06-05T15:26:24.474Z,37.93
2018-06-05T15:28:52.923Z,36.60
2018-06-05T15:31:21.239Z,35.80
2018-06-05T15:33:49.253Z,38.35
2018-06-05T15:36:17.743Z,36.60
2018-06-05T15:38:45.911Z,37.03
2018-06-05T15:41:14.118Z,36.93
2018-06-05T15:43:42.447Z,36.05
2018-06-05T15:46:10.612Z,36.00
2018-06-05T15:48:38.837Z,34.05
2018-06-05T15:51:07.321Z,33.58
2018-06-05T15:53:35.701Z,35.50
2018-06-05T15:56:04.325Z,37.63
2018-06-05T15:58:32.818Z,37.38
2018-06-05T16:01:00.904Z,35.60
2018-06-05T16:03:29.118Z,37.35
2018-06-05T16:05:57.420Z,36.87
2018-06-05T16:08:25.913Z,36.60
2018-06-05T16:10:54.314Z,36.95
2018-06-05T16:13:22.620Z,35.37
2018-06-05T16:15:52.153Z,35.65
2018-06-05T16:18:20.541Z,36.28
2018-06-05T16:20:48.736Z,34.40
2018-06-05T16:23:17.020Z,34.48
2018-06-05T16:25:45.260Z,33.63
2018-06-05T16:28:13.658Z,33.48
2018-06-05T16:30:42.042Z,32.20
2018-06-05T16:33:10.629Z,32.00
2018-06-05T16:35:39.044Z,31.57
2018-06-05T16:38:07.926Z,32.05
2018-06-05T16:40:36.132Z,32.73
2018-06-05T16:43:04.541Z,32.23
2018-06-05T16:45:32.917Z,32.15
2018-06-05T16:48:01.018Z,33.38
2018-06-05T16:50:29.098Z,31.73
2018-06-05T16:52:57.456Z,33.02
2018-06-05T16:55:25.732Z,31.82
2018-06-05T16:57:54.121Z,31.30
2018-06-05T17:00:22.302Z,31.68
2018-06-05T17:02:50.459Z,30.17
2018-06-05T17:05:18.572Z,30.97
2018-06-05T17:07:47.098Z,29.48
2018-06-05T17:10:15.368Z,29.55
2018-06-05T17:12:43.984Z,28.60
2018-06-05T17:15:12.296Z,29.05
2018-06-05T17:17:40.594Z,28.62
2018-06-05T17:20:08.991Z,28.10
2018-06-05T17:22:37.277Z,26.42
2018-06-05T17:25:05.286Z,28.02
2018-06-05T17:27:34.288Z,26.68
2018-06-05T17:30:02.731Z,26.80
2018-06-05T17:32:31.056Z,25.70
2018-06-05T17:35:00.208Z,25.90
2018-06-05T17:37:28.273Z,25.52
2018-06-05T17:39:56.594Z,24.92
2018-06-05T17:42:24.543Z,24.72
2018-06-05T17:44:52.914Z,24.50
2018-06-05T17:47:21.699Z,24.90
2018-06-05T17:49:50.378Z,25.10
2018-06-05T17:52:18.605Z,24.60
2018-06-05T17:54:47.107Z,23.35
2018-06-05T17:57:15.500Z,24.07
2018-06-05T17:59:43.923Z,23.40
2018-06-05T18:02:12.222Z,23.50
2018-06-05T18:04:40.701Z,23.85
2018-06-05T18:07:09.615Z,24.05
2018-06-05T18:09:37.892Z,22.98
2018-06-05T18:12:05.771Z,23.32
2018-06-05T18:14:33.973Z,23.42
2018-06-05T18:17:02.285Z,23.47
2018-06-05T18:19:30.566Z,22.62
2018-06-05T18:21:58.784Z,22.35
2018-06-05T18:24:27.198Z,23.10
2018-06-05T18:26:55.691Z,23.45
2018-06-05T18:29:24.194Z,23.40
2018-06-05T18:31:52.570Z,23.30
2018-06-05T18:34:20.789Z,23.62
2018-06-05T18:36:49.079Z,22.48
2018-06-05T18:39:17.486Z,22.50
2018-06-05T18:41:46.184Z,22.52
2018-06-05T18:44:14.480Z,22.87
2018-06-05T18:46:42.669Z,24.05
2018-06-05T18:49:10.628Z,22.98
2018-06-05T18:51:38.961Z,22.73
2018-06-05T18:54:06.933Z,24.80
2018-06-05T18:56:35.440Z,22.60
2018-06-05T18:59:03.522Z,23.20
2018-06-05T19:01:32.042Z,22.40
2018-06-05T19:04:00.568Z,22.32
2018-06-05T19:06:29.197Z,23.07
2018-06-05T19:08:58.248Z,22.10
2018-06-05T19:11:26.468Z,22.70
2018-06-05T19:13:54.703Z,22.10
2018-06-05T19:16:22.832Z,22.40
2018-06-05T19:18:51.361Z,22.62
2018-06-05T19:21:19.849Z,22.05
2018-06-05T19:23:48.670Z,23.10
2018-06-05T19:26:17.037Z,22.40
2018-06-05T19:28:46.494Z,22.87
2018-06-05T19:31:14.895Z,22.50
2018-06-05T19:33:43.359Z,22.75
2018-06-05T19:36:11.991Z,22.22
2018-06-05T19:38:40.420Z,23.10
2018-06-05T19:41:09.715Z,21.90
2018-06-05T19:43:38.406Z,20.70
2018-06-05T19:46:07.025Z,21.65
2018-06-05T19:48:35.675Z,22.40
2018-06-05T19:51:04.938Z,21.17
2018-06-05T19:53:33.430Z,20.43
2018-06-05T19:56:01.934Z,20.72
2018-06-05T19:58:30.255Z,20.85
2018-06-05T20:00:58.753Z,21.50
2018-06-05T20:03:27.461Z,20.97
2018-06-05T20:05:56.002Z,20.90
2018-06-05T20:08:25.078Z,21.20
2018-06-05T20:10:54.906Z,21.23
2018-06-05T20:13:23.543Z,20.80
2018-06-05T20:15:51.918Z,21.12
2018-06-05T20:18:20.527Z,20.90
2018-06-05T20:20:51.333Z,21.35
2018-06-05T20:23:20.070Z,20.30
2018-06-05T20:25:48.477Z,20.90
2018-06-05T20:28:16.920Z,20.92
2018-06-05T20:30:45.728Z,22.45
2018-06-05T20:33:13.993Z,21.82
2018-06-05T20:35:43.265Z,24.27
2018-06-05T20:38:12.126Z,22.87
2018-06-05T20:40:41.457Z,23.57
2018-06-05T20:43:09.957Z,23.70
2018-06-05T20:45:39.101Z,22.63
2018-06-05T20:48:08.348Z,23.92
2018-06-05T20:50:36.651Z,23.75
2018-06-05T20:53:06.246Z,22.50
2018-06-05T20:55:35.290Z,22.52
2018-06-05T20:58:04.045Z,23.18
2018-06-05T21:00:33.659Z,22.80
2018-06-05T21:03:03.489Z,23.87
2018-06-05T21:05:32.691Z,23.30
2018-06-05T21:08:01.426Z,23.55
2018-06-05T21:10:32.014Z,23.83
2018-06-05T21:13:03.057Z,23.43
2018-06-05T21:15:32.320Z,22.77
2018-06-05T21:18:01.276Z,23.65
2018-06-05T21:20:31.009Z,22.80
2018-06-05T21:22:59.401Z,23.10
2018-06-05T21:25:27.741Z,23.60
2018-06-05T21:27:56.216Z,22.42
2018-06-05T21:30:24.702Z,23.83
2018-06-05T21:32:54.314Z,24.90
2018-06-05T21:35:22.778Z,24.00
2018-06-05T21:37:52.004Z,24.07
2018-06-05T21:40:20.712Z,23.47
2018-06-05T21:42:49.528Z,23.38
2018-06-05T21:45:17.914Z,24.32
2018-06-05T21:47:47.486Z,23.10
2018-06-05T21:50:16.058Z,23.02
2018-06-05T21:52:44.454Z,24.92
2018-06-05T21:55:13.911Z,24.20
2018-06-05T21:57:42.379Z,24.98
2018-06-05T22:00:10.883Z,24.15
2018-06-05T22:02:39.471Z,24.05
2018-06-05T22:05:07.451Z,23.75
2018-06-05T22:07:35.882Z,23.90
2018-06-05T22:10:04.271Z,23.27
2018-06-05T22:12:32.369Z,23.90
2018-06-05T22:15:01.119Z,22.58
2018-06-05T22:17:29.493Z,23.52
2018-06-05T22:19:58.651Z,23.80
2018-06-05T22:22:27.191Z,22.80
2018-06-05T22:24:55.502Z,22.82
2018-06-05T22:27:23.903Z,23.05
2018-06-05T22:29:52.389Z,22.90
2018-06-05T22:32:20.694Z,23.52
2018-06-05T22:34:49.170Z,23.30
2018-06-05T22:37:17.592Z,23.15
2018-06-05T22:39:45.842Z,23.00
2018-06-05T22:42:14.284Z,23.45
2018-06-05T22:44:42.678Z,23.50
2018-06-05T22:47:10.665Z,25.50
2018-06-05T22:49:38.529Z,24.12
2018-06-05T22:52:06.658Z,25.00
2018-06-05T22:54:35.052Z,23.65
2018-06-05T22:57:03.138Z,24.50
2018-06-05T22:59:31.346Z,24.12
2018-06-05T23:01:59.874Z,24.85
2018-06-05T23:04:28.899Z,24.65
2018-06-05T23:06:57.470Z,24.72
2018-06-05T23:09:26.383Z,24.50
2018-06-05T23:11:54.587Z,23.87
2018-06-05T23:14:24.070Z,24.00
2018-06-05T23:16:52.371Z,23.80
2018-06-05T23:19:20.772Z,23.57
2018-06-05T23:21:49.084Z,24.30
2018-06-05T23:24:16.990Z,23.07
2018-06-05T23:26:45.168Z,23.50
2018-06-05T23:29:13.225Z,22.98
2018-06-05T23:31:41.851Z,23.15
2018-06-05T23:34:10.233Z,23.32
2018-06-05T23:36:38.976Z,24.02
2018-06-05T23:39:07.789Z,23.12
2018-06-05T23:41:36.082Z,22.22
2018-06-05T23:44:04.686Z,23.60
2018-06-05T23:46:32.971Z,23.20
2018-06-05T23:49:01.479Z,22.00
2018-06-05T23:51:29.483Z,23.47
2018-06-05T23:53:57.834Z,24.20
2018-06-05T23:56:26.267Z,24.30
2018-06-05T23:58:54.344Z,23.73
